M I D A S
Marine Information and Data Acquisition System
Tripno 248 of the Zeeleeuw from 2002-04-23 06:45:35 to 2002-04-23 11:52:25
Back to CruiseResearch ActivitiesStationsMapUnderway DataData graphs

EquipmentUnitsComments
TimeDGPSUTC
LatitudeDGPSDM.mWGS84
LongitudeDGPSDM.mWGS84
SpeedMeteo Stationm/sRelative wind speed
DirectionMeteo StationdegRelative wind direction
TemperatureMeteo Stationdeg CelciusAir temperature
PressureMeteo StationPaAtmospheric pressure
HumidityMeteo Station%Relative humidity
Missing or incorrect values are displayed as -999
Metereological data collected by the RV Zeeleeuw from 2002-04-23 06:45:35 to 2002-04-23 11:52:25
Time Latitude Longitude Speed Direction Temperature Pressure Humidity
2002-04-23 06:46 51°13.688 2°55.906 1.4 51 11.5 103080 85
2002-04-23 06:47 51°13.687 2°55.905 2.1 37 11.6 103080 86
2002-04-23 06:48 51°13.686 2°55.904 2.7 8 11.6 103080 86
2002-04-23 06:49 51°13.691 2°55.857 5.5 18 11.6 103080 85
2002-04-23 06:50 51°13.688 2°55.774 4.6 32 11.6 103080 85
2002-04-23 06:51 51°13.687 2°55.737 4 300 11.5 103090 85
2002-04-23 06:52 51°13.698 2°55.752 2 340 11.5 103090 85
2002-04-23 06:53 51°13.684 2°55.742 4.2 265 11.5 103090 85
2002-04-23 06:54 51°13.767 2°55.684 6.6 243 11.5 103080 85
2002-04-23 06:55 51°13.889 2°55.597 5.9 254 11.5 103070 85
2002-04-23 06:56 51°14.014 2°55.505 6.4 253 11.4 103080 85
2002-04-23 06:57 51°14.107 2°55.431 7.4 257 11.4 103070 85
2002-04-23 06:58 51°14.203 2°55.344 9.3 247 11.4 103080 85
2002-04-23 06:59 51°14.303 2°55.188 9.3 242 11.4 103080 85
2002-04-23 07:00 51°14.42 2°54.999 9.1 233 11.4 103080 86
2002-04-23 07:01 51°14.461 2°54.722 10.6 225 11.3 103090 86
2002-04-23 07:02 51°14.422 2°54.44 8.3 214 11.3 103080 86
2002-04-23 07:03 51°14.321 2°54.189 9 213 11.3 103090 86
2002-04-23 07:04 51°14.221 2°53.935 8.1 217 11.2 103090 86
2002-04-23 07:05 51°14.128 2°53.674 9.2 210 11.2 103090 86
2002-04-23 07:06 51°14.028 2°53.402 9.4 214 11.2 103090 87
2002-04-23 07:07 51°13.921 2°53.109 9.7 215 11.2 103090 87
2002-04-23 07:08 51°13.813 2°52.814 10 211 11.2 103090 87
2002-04-23 07:09 51°13.704 2°52.518 8.7 215 11.2 103090 87
2002-04-23 07:10 51°13.595 2°52.221 9.7 210 11.1 103090 87
2002-04-23 07:11 51°13.486 2°51.924 9.2 213 11.1 103090 87
2002-04-23 07:12 51°13.377 2°51.627 10 213 11.1 103090 87
2002-04-23 07:13 51°13.269 2°51.333 9.9 211 11 103090 87
2002-04-23 07:14 51°13.162 2°51.039 10.1 212 11 103090 87
2002-04-23 07:15 51°13.056 2°50.745 9.5 210 11 103080 87
2002-04-23 07:16 51°12.949 2°50.45 9.4 213 11 103080 88
2002-04-23 07:17 51°12.842 2°50.156 10.4 209 11 103090 88
2002-04-23 07:18 51°12.724 2°49.875 8.9 210 10.9 103080 88
2002-04-23 07:19 51°12.605 2°49.594 9.2 211 11 103080 88
2002-04-23 07:20 51°12.487 2°49.313 8.4 211 11 103080 88
2002-04-23 07:21 51°12.368 2°49.034 9.1 210 11 103090 88
2002-04-23 07:22 51°12.25 2°48.755 8.7 209 11 103090 88
2002-04-23 07:23 51°12.132 2°48.477 8.8 217 11 103090 88
2002-04-23 07:24 51°12.014 2°48.199 8.3 215 11 103090 88
2002-04-23 07:25 51°11.901 2°47.916 8.2 217 11.1 103100 88
2002-04-23 07:26 51°11.79 2°47.632 9 218 11.1 103090 88
2002-04-23 07:27 51°11.678 2°47.349 8.7 220 11.1 103100 88
2002-04-23 07:28 51°11.567 2°47.067 8.4 221 11.1 103100 87
2002-04-23 07:29 51°11.455 2°46.786 9.1 216 11.2 103100 87
2002-04-23 07:30 51°11.343 2°46.505 8.7 220 11.2 103100 87
2002-04-23 07:31 51°11.231 2°46.224 8 222 11.2 103100 87
2002-04-23 07:32 51°11.119 2°45.942 7.7 221 11.3 103110 87
2002-04-23 07:33 51°11.006 2°45.66 8.9 219 11.3 103100 87
2002-04-23 07:34 51°10.893 2°45.38 8.5 226 11.3 103100 87
2002-04-23 07:35 51°10.782 2°45.1 8.5 224 11.3 103100 87
2002-04-23 07:36 51°10.671 2°44.82 8.7 221 11.3 103100 87
2002-04-23 07:37 51°10.559 2°44.54 7.4 223 11.3 103100 87
2002-04-23 07:38 51°10.447 2°44.26 7.9 225 11.3 103100 87
2002-04-23 07:39 51°10.335 2°43.981 8.3 227 11.3 103100 87
2002-04-23 07:40 51°10.226 2°43.7 8.6 232 11.3 103100 87
2002-04-23 07:41 51°10.204 2°43.381 8.8 232 11.3 103100 87
2002-04-23 07:42 51°10.254 2°43.057 8.9 229 11.2 103100 87
2002-04-23 07:43 51°10.247 2°42.733 9.3 225 11.3 103110 87
2002-04-23 07:44 51°10.192 2°42.415 9 222 11.2 103110 87
2002-04-23 07:45 51°10.151 2°42.091 9.1 219 11.2 103110 87
2002-04-23 07:46 51°10.11 2°41.769 10.3 215 11.2 103100 87
2002-04-23 07:47 51°10.068 2°41.446 9.8 217 11.2 103100 87
2002-04-23 07:48 51°10.027 2°41.124 12.4 212 11.2 103100 87
2002-04-23 07:49 51°9.986 2°40.802 11.7 215 11.2 103100 87
2002-04-23 07:50 51°9.946 2°40.48 10.9 212 11.2 103090 87
2002-04-23 07:51 51°9.906 2°40.159 11.8 215 11.2 103100 87
2002-04-23 07:52 51°9.866 2°39.839 11.9 216 11.2 103090 87
2002-04-23 07:53 51°9.827 2°39.518 11 213 11.2 103090 87
2002-04-23 07:54 51°9.785 2°39.197 12.4 207 11.2 103090 87
2002-04-23 07:55 51°9.744 2°38.875 12.2 209 11.2 103090 87
2002-04-23 07:56 51°9.702 2°38.553 12.2 209 11.2 103090 87
2002-04-23 07:57 51°9.66 2°38.231 12 208 11.1 103090 87
2002-04-23 07:58 51°9.618 2°37.908 11 209 11.1 103090 87
2002-04-23 07:59 51°9.577 2°37.586 12.2 203 11 103090 88
2002-04-23 08:00 51°9.537 2°37.265 11.4 207 11 103090 88
2002-04-23 08:01 51°9.518 2°36.938 12.8 208 11 103090 88
2002-04-23 08:02 51°9.499 2°36.612 11.2 209 10.9 103090 88
2002-04-23 08:03 51°9.479 2°36.287 10.8 207 10.9 103090 88
2002-04-23 08:04 51°9.46 2°35.964 12.3 205 10.9 103100 88
2002-04-23 08:05 51°9.469 2°35.639 13.5 215 10.9 103090 89
2002-04-23 08:06 51°9.539 2°35.324 14.2 214 11 103090 89
2002-04-23 08:07 51°9.647 2°35.034 13.2 228 11 103090 89
2002-04-23 08:08 51°9.77 2°34.755 15.8 223 11 103090 88
2002-04-23 08:09 51°9.93 2°34.527 13.8 239 11 103100 88
2002-04-23 08:10 51°10.15 2°34.497 12.1 259 11.1 103090 88
2002-04-23 08:11 51°10.352 2°34.678 11.4 266 11.1 103100 88
2002-04-23 08:12 51°10.535 2°34.913 12.1 273 11.1 103110 88
2002-04-23 08:13 51°10.716 2°35.154 11.6 274 11.1 103100 88
2002-04-23 08:14 51°10.89 2°35.408 11.6 271 11.1 103100 88
2002-04-23 08:15 51°11.065 2°35.662 10.9 272 11 103110 88
2002-04-23 08:16 51°11.241 2°35.914 11.5 266 11.1 103110 88
2002-04-23 08:17 51°11.424 2°36.152 11.9 273 11.1 103110 88
2002-04-23 08:18 51°11.607 2°36.387 11.9 272 11.1 103100 88
2002-04-23 08:19 51°11.789 2°36.626 12.5 271 11.1 103100 88
2002-04-23 08:20 51°11.973 2°36.863 11.9 267 11.1 103110 88
2002-04-23 08:21 51°12.157 2°37.1 11.5 274 11.1 103110 88
2002-04-23 08:22 51°12.341 2°37.341 12.9 274 11.1 103110 88
2002-04-23 08:23 51°12.527 2°37.582 12.4 272 11.1 103110 88
2002-04-23 08:24 51°12.713 2°37.82 11.5 270 11.1 103110 88
2002-04-23 08:25 51°12.899 2°38.061 12.3 270 11.1 103120 88
2002-04-23 08:26 51°13.1 2°38.265 12.5 262 11.1 103100 88
2002-04-23 08:27 51°13.324 2°38.36 12.7 251 11.1 103110 88
2002-04-23 08:28 51°13.536 2°38.289 14.1 237 11.1 103110 88
2002-04-23 08:29 51°13.721 2°38.106 14.5 236 11.1 103110 88
2002-04-23 08:30 51°13.871 2°37.871 13.5 226 11.1 103110 88
2002-04-23 08:31 51°13.961 2°37.576 13 214 11.1 103100 88
2002-04-23 08:32 51°13.94 2°37.26 11 205 11 103110 87
2002-04-23 08:33 51°13.888 2°36.95 11.8 202 11 103110 87
2002-04-23 08:34 51°13.826 2°36.646 10.8 199 10.9 103120 88
2002-04-23 08:35 51°13.746 2°36.355 10.9 199 10.8 103120 88
2002-04-23 08:36 51°13.671 2°36.061 10.2 198 10.8 103120 88
2002-04-23 08:37 51°13.596 2°35.766 11 201 10.8 103110 88
2002-04-23 08:38 51°13.521 2°35.47 10.2 197 10.8 103120 89
2002-04-23 08:39 51°13.445 2°35.173 10.9 201 10.7 103110 89
2002-04-23 08:40 51°13.363 2°34.882 10.6 195 10.7 103130 89
2002-04-23 08:41 51°13.27 2°34.597 10.7 196 10.7 103120 89
2002-04-23 08:42 51°13.18 2°34.308 9.7 199 10.7 103130 89
2002-04-23 08:43 51°13.088 2°34.019 9.9 203 10.7 103130 89
2002-04-23 08:44 51°12.996 2°33.731 10.9 203 10.7 103130 89
2002-04-23 08:45 51°12.903 2°33.443 10.7 199 10.7 103130 89
2002-04-23 08:46 51°12.81 2°33.157 10.9 204 10.7 103130 89
2002-04-23 08:47 51°12.717 2°32.869 10.8 201 10.7 103130 89
2002-04-23 08:48 51°12.624 2°32.58 10.9 199 10.7 103130 89
2002-04-23 08:49 51°12.532 2°32.288 9.1 201 10.6 103130 89
2002-04-23 08:50 51°12.441 2°31.996 10.5 201 10.6 103130 90
2002-04-23 08:51 51°12.349 2°31.704 9.5 200 10.6 103130 90
2002-04-23 08:52 51°12.258 2°31.41 9.5 201 10.6 103130 90
2002-04-23 08:53 51°12.168 2°31.117 9.4 198 10.6 103130 90
2002-04-23 08:54 51°12.078 2°30.828 9.7 204 10.6 103130 90
2002-04-23 08:55 51°11.988 2°30.544 10 203 10.6 103120 90
2002-04-23 08:56 51°11.898 2°30.266 10.3 201 10.6 103120 90
2002-04-23 08:57 51°11.808 2°29.987 9.1 201 10.6 103130 90
2002-04-23 08:58 51°11.72 2°29.706 9.3 204 10.6 103130 90
2002-04-23 08:59 51°11.647 2°29.415 9.8 201 10.6 103130 90
2002-04-23 09:00 51°11.57 2°29.123 9.9 204 10.6 103130 90
2002-04-23 09:01 51°11.491 2°28.828 10 204 10.6 103130 90
2002-04-23 09:02 51°11.413 2°28.533 10.7 203 10.6 103130 90
2002-04-23 09:03 51°11.343 2°28.226 11.1 206 10.6 103130 90
2002-04-23 09:04 51°11.284 2°27.924 11.1 205 10.6 103130 90
2002-04-23 09:05 51°11.243 2°27.61 11.2 213 10.6 103130 90
2002-04-23 09:06 51°11.246 2°27.285 11.1 216 10.6 103130 90
2002-04-23 09:07 51°11.239 2°26.959 12 213 10.7 103130 90
2002-04-23 09:08 51°11.233 2°26.63 11.9 211 10.7 103130 90
2002-04-23 09:09 51°11.229 2°26.305 11.9 211 10.8 103130 90
2002-04-23 09:10 51°11.233 2°25.982 12.3 217 10.8 103130 89
2002-04-23 09:11 51°11.311 2°25.685 12.6 226 10.8 103130 89
2002-04-23 09:12 51°11.478 2°25.464 13.7 236 10.9 103130 89
2002-04-23 09:13 51°11.707 2°25.432 12.1 256 10.9 103130 89
2002-04-23 09:14 51°11.939 2°25.538 12.9 256 10.9 103120 89
2002-04-23 09:15 51°12.177 2°25.597 11.6 254 10.9 103130 89
2002-04-23 09:16 51°12.408 2°25.713 11.4 258 11 103130 89
2002-04-23 09:17 51°12.637 2°25.846 10.6 250 11 103130 88
2002-04-23 09:18 51°12.869 2°25.966 11.1 254 11 103140 88
2002-04-23 09:19 51°13.067 2°26.2 10.1 266 11 103140 88
2002-04-23 09:20 51°13.241 2°26.48 10.6 270 11 103140 88
2002-04-23 09:21 51°13.421 2°26.754 9.4 263 11 103140 88
2002-04-23 09:22 51°13.559 2°27.084 9.1 266 11 103150 88
2002-04-23 09:23 51°13.705 2°27.406 8.4 263 11 103140 88
2002-04-23 09:24 51°13.851 2°27.725 8.4 270 11 103130 88
2002-04-23 09:25 51°13.995 2°28.044 9.1 272 11 103140 88
2002-04-23 09:26 51°14.14 2°28.362 9 270 11 103140 88
2002-04-23 09:27 51°14.288 2°28.68 9.1 265 11 103140 88
2002-04-23 09:28 51°14.442 2°28.99 7.9 260 11 103150 88
2002-04-23 09:29 51°14.593 2°29.305 8.5 270 11 103140 88
2002-04-23 09:30 51°14.743 2°29.621 9.2 270 11 103140 88
2002-04-23 09:31 51°14.897 2°29.937 8.6 263 11 103140 88
2002-04-23 09:32 51°15.049 2°30.253 7.9 259 11 103140 88
2002-04-23 09:33 51°15.2 2°30.573 8.7 266 11 103120 88
2002-04-23 09:34 51°15.352 2°30.892 8.4 265 11 103130 88
2002-04-23 09:35 51°15.502 2°31.21 7.8 261 11 103120 88
2002-04-23 09:36 51°15.653 2°31.537 7.7 261 11.1 103130 88
2002-04-23 09:37 51°15.793 2°31.861 7.3 261 11.1 103130 88
2002-04-23 09:38 51°15.937 2°32.187 7.4 257 11.1 103130 88
2002-04-23 09:39 51°16.08 2°32.514 7.5 258 11.1 103130 88
2002-04-23 09:40 51°16.208 2°32.852 7 268 11.1 103130 88
2002-04-23 09:41 51°16.234 2°33.229 4 251 11.1 103140 88
2002-04-23 09:42 51°16.122 2°33.552 3.2 243 11.2 103150 88
2002-04-23 09:43 51°16 2°33.87 3.8 240 11.3 103150 88
2002-04-23 09:44 51°15.883 2°34.19 3.3 246 11.4 103150 88
2002-04-23 09:45 51°15.771 2°34.508 3.3 245 11.4 103150 88
2002-04-23 09:46 51°15.667 2°34.827 3.6 259 11.5 103150 87
2002-04-23 09:47 51°15.681 2°35.19 6.9 268 11.5 103140 87
2002-04-23 09:48 51°15.828 2°35.49 9.4 265 11.4 103130 87
2002-04-23 09:49 51°16.02 2°35.727 8.9 261 11.4 103130 87
2002-04-23 09:50 51°16.191 2°36.006 9.4 265 11.3 103130 86
2002-04-23 09:51 51°16.375 2°36.264 9.8 265 11.3 103120 86
2002-04-23 09:52 51°16.56 2°36.52 9.4 261 11.3 103130 86
2002-04-23 09:53 51°16.745 2°36.781 8.5 260 11.2 103120 86
2002-04-23 09:54 51°16.93 2°37.045 9.2 271 11.2 103110 87
2002-04-23 09:55 51°17.135 2°37.252 11.2 257 11.2 103120 87
2002-04-23 09:56 51°17.362 2°37.209 13.2 235 11.2 103120 87
2002-04-23 09:57 51°17.538 2°36.984 12.9 231 11.2 103120 87
2002-04-23 09:58 51°17.701 2°36.734 12.9 235 11.2 103120 87
2002-04-23 09:59 51°17.86 2°36.488 12.2 228 11.2 103130 87
2002-04-23 10:00 51°18.015 2°36.243 12.4 232 11.2 103130 87
2002-04-23 10:01 51°18.185 2°36.021 11.6 237 11.2 103130 87
2002-04-23 10:02 51°18.37 2°35.824 12.3 232 11.2 103120 87
2002-04-23 10:03 51°18.555 2°35.629 12.3 234 11.2 103120 87
2002-04-23 10:04 51°18.741 2°35.439 12 232 11.1 103120 87
2002-04-23 10:05 51°18.946 2°35.298 11 247 11.2 103120 87
2002-04-23 10:06 51°19.18 2°35.362 10.4 257 11.2 103130 87
2002-04-23 10:07 51°19.395 2°35.557 9.7 261 11.2 103140 87
2002-04-23 10:08 51°19.567 2°35.85 8.1 266 11.2 103140 87
2002-04-23 10:09 51°19.696 2°36.201 8.4 267 11.2 103150 87
2002-04-23 10:10 51°19.841 2°36.521 8.3 265 11.2 103140 87
2002-04-23 10:11 51°19.991 2°36.844 8.2 257 11.2 103140 87
2002-04-23 10:12 51°20.139 2°37.173 8.1 258 11.2 103150 87
2002-04-23 10:13 51°20.283 2°37.492 7.8 259 11.2 103150 87
2002-04-23 10:14 51°20.427 2°37.821 8.8 265 11.2 103140 87
2002-04-23 10:15 51°20.572 2°38.135 7.8 256 11.3 103140 87
2002-04-23 10:16 51°20.715 2°38.454 7.6 259 11.3 103150 87
2002-04-23 10:17 51°20.831 2°38.799 6.3 263 11.3 103140 87
2002-04-23 10:18 51°20.845 2°39.186 5.4 251 11.3 103150 87
2002-04-23 10:19 51°20.808 2°39.569 4.7 254 11.4 103140 87
2002-04-23 10:20 51°20.762 2°39.948 4.6 253 11.4 103140 87
2002-04-23 10:21 51°20.719 2°40.324 4.3 260 11.5 103140 87
2002-04-23 10:22 51°20.676 2°40.701 4.4 255 11.5 103140 87
2002-04-23 10:23 51°20.634 2°41.078 4.5 256 11.5 103140 87
2002-04-23 10:24 51°20.591 2°41.456 4.8 251 11.5 103140 86
2002-04-23 10:25 51°20.546 2°41.835 4.9 243 11.6 103140 86
2002-04-23 10:26 51°20.5 2°42.215 4.8 242 11.6 103140 86
2002-04-23 10:27 51°20.454 2°42.593 4.8 242 11.6 103150 86
2002-04-23 10:28 51°20.406 2°42.967 4.7 243 11.6 103150 86
2002-04-23 10:29 51°20.361 2°43.338 4.5 247 11.6 103140 86
2002-04-23 10:30 51°20.314 2°43.706 4.2 252 11.7 103140 86
2002-04-23 10:31 51°20.269 2°44.074 4.3 251 11.6 103140 86
2002-04-23 10:32 51°20.22 2°44.444 4.2 253 11.6 103140 86
2002-04-23 10:33 51°20.161 2°44.819 4.3 254 11.7 103130 86
2002-04-23 10:34 51°20.108 2°45.191 4.3 261 11.7 103130 85
2002-04-23 10:35 51°20.055 2°45.557 4.5 261 11.7 103130 85
2002-04-23 10:36 51°19.974 2°45.911 3.4 247 11.7 103130 85
2002-04-23 10:37 51°19.877 2°46.25 3.8 238 11.8 103130 85
2002-04-23 10:38 51°19.782 2°46.592 3.7 240 11.8 103130 85
2002-04-23 10:39 51°19.686 2°46.933 4 236 11.8 103130 85
2002-04-23 10:40 51°19.588 2°47.281 4 240 11.8 103130 85
2002-04-23 10:41 51°19.466 2°47.585 4.2 221 11.8 103130 85
2002-04-23 10:42 51°19.337 2°47.884 4.2 230 11.8 103130 85
2002-04-23 10:43 51°19.212 2°48.193 4.1 228 11.9 103130 85
2002-04-23 10:44 51°19.087 2°48.503 4 231 11.9 103130 85
2002-04-23 10:45 51°18.957 2°48.817 3.5 230 11.9 103130 85
2002-04-23 10:46 51°18.832 2°49.117 3.3 239 12 103130 85
2002-04-23 10:47 51°18.703 2°49.419 2.7 225 12.1 103120 85
2002-04-23 10:48 51°18.575 2°49.718 2.8 225 12.1 103120 84
2002-04-23 10:49 51°18.446 2°50.017 2.8 228 12.1 103120 84
2002-04-23 10:50 51°18.318 2°50.315 3 226 12.1 103110 84
2002-04-23 10:51 51°18.189 2°50.612 3.6 230 12.1 103120 84
2002-04-23 10:52 51°18.08 2°50.93 3.8 226 12 103120 84
2002-04-23 10:53 51°17.97 2°51.246 3.9 224 12 103120 84
2002-04-23 10:54 51°17.853 2°51.553 4.2 218 12 103120 84
2002-04-23 10:55 51°17.701 2°51.812 4.9 217 11.9 103120 84
2002-04-23 10:56 51°17.538 2°52.051 6.5 214 11.9 103120 84
2002-04-23 10:57 51°17.343 2°52.21 7.9 212 11.8 103120 84
2002-04-23 10:58 51°17.153 2°52.38 8 209 11.8 103110 85
2002-04-23 10:59 51°16.963 2°52.553 7.2 204 11.6 103110 84
2002-04-23 11:00 51°16.769 2°52.731 7.1 199 11.4 103100 85
2002-04-23 11:01 51°16.577 2°52.891 7.5 201 11.3 103100 86
2002-04-23 11:02 51°16.376 2°53.036 7.5 204 11.2 103100 87
2002-04-23 11:03 51°16.177 2°53.19 8.5 208 11.1 103110 87
2002-04-23 11:04 51°15.978 2°53.342 8.9 212 11.1 103110 88
2002-04-23 11:05 51°15.778 2°53.493 8.5 211 11.2 103120 88
2002-04-23 11:06 51°15.585 2°53.666 8 207 11.3 103120 88
2002-04-23 11:07 51°15.411 2°53.892 6.7 204 11.3 103130 88
2002-04-23 11:08 51°15.232 2°54.103 6.2 203 11.2 103130 88
2002-04-23 11:09 51°15.073 2°54.289 3.4 184 11.2 103130 88
2002-04-23 11:10 51°14.965 2°54.432 3.8 191 11.2 103130 88
2002-04-23 11:11 51°14.874 2°54.568 3.9 175 11.2 103130 88
2002-04-23 11:12 51°14.81 2°54.667 3 161 11.2 103130 88
2002-04-23 11:13 51°14.775 2°54.734 2.6 135 11.3 103130 88
2002-04-23 11:14 51°14.753 2°54.791 2.7 132 11.3 103140 89
2002-04-23 11:15 51°14.725 2°54.835 4.1 175 11.4 103130 88
2002-04-23 11:16 51°14.689 2°54.783 6.2 244 11.3 103140 88
2002-04-23 11:17 51°14.798 2°54.672 8.5 259 11.4 103130 88
2002-04-23 11:18 51°14.995 2°54.544 8.4 255 11.5 103130 88
2002-04-23 11:19 51°15.133 2°54.521 1.6 319 11.5 103130 88
2002-04-23 11:20 51°15.255 2°54.606 6.6 266 11.6 103140 88
2002-04-23 11:21 51°15.47 2°54.63 8.4 265 11.6 103130 87
2002-04-23 11:22 51°15.597 2°54.576 5.2 292 11.6 103130 87
2002-04-23 11:23 51°15.619 2°54.585 5.2 287 11.6 103140 87
2002-04-23 11:24 51°15.734 2°54.446 11.6 249 11.7 103130 87
2002-04-23 11:25 51°15.894 2°54.212 12 247 11.7 103130 87
2002-04-23 11:26 51°15.884 2°53.991 7.2 190 11.7 103130 87
2002-04-23 11:27 51°15.703 2°54.081 6.2 191 11.5 103150 86
2002-04-23 11:28 51°15.533 2°54.198 6.3 193 11.4 103160 87
2002-04-23 11:29 51°15.364 2°54.311 6.1 195 11.3 103160 87
2002-04-23 11:30 51°15.196 2°54.425 6.1 199 11.2 103160 87
2002-04-23 11:31 51°15.03 2°54.549 6 201 11.2 103160 88
2002-04-23 11:32 51°14.861 2°54.655 6 196 11.2 103150 88
2002-04-23 11:33 51°14.707 2°54.768 4.1 185 11.2 103150 88
2002-04-23 11:34 51°14.586 2°54.856 3.8 185 11.1 103150 88
2002-04-23 11:35 51°14.473 2°54.933 5.1 172 11.2 103150 88
2002-04-23 11:36 51°14.376 2°55.035 2.6 139 11.2 103150 88
2002-04-23 11:37 51°14.306 2°55.173 2.3 162 11.3 103150 89
2002-04-23 11:38 51°14.247 2°55.282 2.5 133 11.4 103160 88
2002-04-23 11:39 51°14.19 2°55.35 3.5 140 11.5 103160 88
2002-04-23 11:40 51°14.124 2°55.405 3 136 11.6 103160 88
2002-04-23 11:41 51°14.058 2°55.459 1.7 155 11.6 103150 88
2002-04-23 11:42 51°13.988 2°55.513 2.2 127 11.8 103160 88
2002-04-23 11:43 51°13.915 2°55.568 3.4 158 11.8 103150 88
2002-04-23 11:44 51°13.846 2°55.623 2.2 130 11.8 103150 87
2002-04-23 11:45 51°13.794 2°55.676 2.9 110 11.9 103160 87
2002-04-23 11:46 51°13.75 2°55.727 3.7 62 12 103160 87
2002-04-23 11:47 51°13.715 2°55.778 1.7 39 12 103160 86
2002-04-23 11:48 51°13.695 2°55.833 1.9 69 12.2 103160 87
2002-04-23 11:49 51°13.688 2°55.886 2.1 17 12.4 103170 86
2002-04-23 11:50 51°13.689 2°55.898 3.7 27 12.4 103170 85
2002-04-23 11:51 51°13.687 2°55.903 5.1 42 12.3 103170 83